Time;durP1;ratioP1;P1;durP2;ratioP2;P2;SDS_P1;SDS_P2;PMS_P1;PMS_P2;Temp;Humidity;BMP_temperature;BMP_pressure;BME280_temperature;BME280_humidity;BME280_pressure;Samples;Min_cycle;Max_cycle;Signal;HPM_P1;HPM_P2
2023/10/13 00:00:41;;;;;;;83.07;40.60;;;15.10;99.90;;;;;;5000990;28;204338;-71
2023/10/13 00:03:14;;;;;;;83.47;40.70;;;15.10;99.90;;;;;;5058585;28;20053;-71
2023/10/13 00:05:41;;;;;;;82.72;39.60;;;15.30;99.90;;;;;;4985497;28;149858;-71
2023/10/13 00:08:09;;;;;;;74.50;36.60;;;15.20;99.90;;;;;;5057530;28;20063;-70
2023/10/13 00:10:35;;;;;;;72.70;36.88;;;15.20;99.90;;;;;;4992652;28;101393;-70
2023/10/13 00:13:11;;;;;;;70.50;36.10;;;15.40;99.90;;;;;;5060315;28;20049;-70
2023/10/13 00:15:56;;;;;;;70.82;36.22;;;15.30;99.90;;;;;;4990461;28;273374;-71
2023/10/13 00:18:33;;;;;;;66.72;35.33;;;15.40;99.90;;;;;;5027205;28;20431;-74
2023/10/13 00:21:30;;;;;;;67.50;34.45;;;15.50;99.90;;;;;;5029028;28;20040;-70
2023/10/13 00:23:53;;;;;;;66.60;35.33;;;15.50;99.90;;;;;;5008847;28;208426;-70
2023/10/13 00:26:28;;;;;;;59.13;32.72;;;15.50;99.90;;;;;;5056763;28;20052;-71
2023/10/13 00:29:08;;;;;;;58.22;32.35;;;15.50;99.90;;;;;;5022887;28;36830;-72
2023/10/13 00:31:37;;;;;;;63.55;33.70;;;15.70;99.90;;;;;;5064748;28;20056;-71
2023/10/13 00:34:28;;;;;;;58.38;32.72;;;15.70;99.90;;;;;;5015234;28;112137;-72
2023/10/13 00:39:44;;;;;;;59.15;31.85;;;15.80;99.90;;;;;;5009646;28;22894;-72
2023/10/13 00:42:18;;;;;;;57.22;31.45;;;15.80;99.90;;;;;;5054663;28;20518;-72
2023/10/13 00:44:48;;;;;;;50.53;30.65;;;15.80;99.90;;;;;;5008544;28;45505;-72
2023/10/13 00:49:59;;;;;;;54.30;30.55;;;16.00;99.90;;;;;;5015284;28;51102;-73
2023/10/13 00:52:25;;;;;;;50.20;28.95;;;15.90;99.90;;;;;;5040311;28;20051;-73
2023/10/13 00:54:53;;;;;;;46.88;28.73;;;16.00;99.90;;;;;;4984084;28;208330;-74
2023/10/13 00:57:32;;;;;;;49.08;28.83;;;16.00;99.90;;;;;;5055161;28;20053;-73
2023/10/13 00:59:59;;;;;;;44.90;27.67;;;16.00;99.90;;;;;;5018368;28;62655;-73
2023/10/13 01:02:37;;;;;;;45.65;28.27;;;16.00;99.90;;;;;;5055106;28;20056;-72
2023/10/13 01:05:09;;;;;;;51.88;27.65;;;16.10;99.90;;;;;;4998984;28;173296;-73
2023/10/13 01:07:37;;;;;;;45.15;27.00;;;16.00;99.90;;;;;;5053125;28;20047;-72
2023/10/13 01:10:15;;;;;;;47.85;26.55;;;16.10;99.90;;;;;;4999868;28;35585;-72
2023/10/13 01:12:45;;;;;;;50.45;26.80;;;16.10;99.90;;;;;;5041977;28;20422;-73
2023/10/13 01:15:20;;;;;;;47.08;26.13;;;16.20;99.90;;;;;;5001971;28;204765;-72
2023/10/13 01:17:47;;;;;;;50.45;26.20;;;16.20;99.90;;;;;;5049945;28;20502;-71
2023/10/13 01:20:26;;;;;;;49.42;25.50;;;16.20;99.90;;;;;;4993011;28;77844;-71
2023/10/13 01:22:55;;;;;;;44.35;25.40;;;16.20;99.90;;;;;;5058365;28;20061;-72
2023/10/13 01:25:28;;;;;;;45.92;25.05;;;16.20;99.90;;;;;;4987122;28;57549;-72
2023/10/13 01:27:55;;;;;;;44.92;24.13;;;16.20;99.90;;;;;;5039044;28;20936;-72
2023/10/13 01:30:26;;;;;;;40.47;23.30;;;16.30;99.90;;;;;;5001180;28;53776;-73
2023/10/13 01:32:53;;;;;;;45.63;23.80;;;16.20;99.90;;;;;;5059796;28;20052;-72
2023/10/13 01:35:25;;;;;;;45.72;24.83;;;16.20;99.90;;;;;;5015961;28;135675;-72
2023/10/13 01:37:51;;;;;;;40.42;23.23;;;16.20;99.90;;;;;;5042663;28;20040;-73
2023/10/13 01:40:20;;;;;;;46.58;24.55;;;16.30;99.90;;;;;;5024573;28;20055;-72
2023/10/13 01:42:47;;;;;;;46.35;24.00;;;16.30;99.90;;;;;;5053970;28;20052;-72
2023/10/13 01:45:13;;;;;;;45.42;24.42;;;16.30;99.90;;;;;;5003371;28;135180;-71
2023/10/13 01:47:39;;;;;;;46.53;25.30;;;16.20;99.90;;;;;;5061806;28;20076;-71
2023/10/13 01:50:14;;;;;;;42.30;23.45;;;16.20;99.90;;;;;;5012083;28;105564;-72
2023/10/13 01:52:41;;;;;;;56.97;25.70;;;16.30;99.90;;;;;;5059829;28;20060;-72
2023/10/13 01:55:10;;;;;;;52.22;26.17;;;16.30;99.90;;;;;;4979207;28;184842;-72
2023/10/13 01:57:36;;;;;;;50.30;26.90;;;16.30;99.90;;;;;;5062925;28;20044;-73
2023/10/13 02:00:09;;;;;;;55.28;27.50;;;16.30;99.90;;;;;;4973189;28;236589;-73
2023/10/13 02:02:44;;;;;;;54.63;27.52;;;16.30;99.90;;;;;;5059547;28;20044;-73
2023/10/13 02:05:11;;;;;;;50.17;25.98;;;16.30;99.90;;;;;;5009802;28;225747;-73
2023/10/13 02:07:44;;;;;;;59.17;28.33;;;16.20;99.90;;;;;;5055401;28;20442;-72
2023/10/13 02:10:13;;;;;;;53.80;27.00;;;16.20;99.90;;;;;;5025247;28;112862;-73
2023/10/13 02:12:42;;;;;;;52.38;26.25;;;16.20;99.90;;;;;;5052145;28;20060;-73
2023/10/13 02:15:21;;;;;;;53.88;28.52;;;16.40;99.90;;;;;;4984899;28;102122;-73
2023/10/13 02:17:51;;;;;;;56.70;27.52;;;16.30;99.90;;;;;;5060719;28;20048;-72
2023/10/13 02:20:30;;;;;;;50.73;27.77;;;16.30;99.90;;;;;;4993313;28;77920;-73
2023/10/13 02:22:56;;;;;;;52.50;28.00;;;16.30;99.90;;;;;;5058550;28;20048;-72
2023/10/13 02:25:42;;;;;;;49.25;26.50;;;16.30;99.90;;;;;;5023577;28;185714;-73
2023/10/13 02:28:13;;;;;;;49.08;29.30;;;16.40;99.90;;;;;;5057594;28;20063;-74
2023/10/13 02:30:49;;;;;;;47.38;26.58;;;16.30;99.90;;;;;;4990873;28;147758;-74
2023/10/13 02:33:21;;;;;;;50.45;28.33;;;16.30;99.90;;;;;;5029687;28;20060;-73
2023/10/13 02:35:53;;;;;;;46.10;27.98;;;16.30;99.90;;;;;;5036341;28;248293;-73
2023/10/13 02:38:32;;;;;;;56.45;27.58;;;16.30;99.90;;;;;;5030019;28;20049;-73
2023/10/13 02:41:05;;;;;;;51.22;28.38;;;16.30;99.90;;;;;;5029442;28;20045;-73
2023/10/13 02:43:33;;;;;;;49.95;27.65;;;16.30;99.90;;;;;;5032945;28;20041;-72
2023/10/13 02:46:00;;;;;;;48.40;27.55;;;16.40;99.90;;;;;;5043531;28;20032;-73
2023/10/13 02:48:30;;;;;;;48.90;27.20;;;16.30;99.90;;;;;;5026530;28;20049;-72
2023/10/13 02:51:01;;;;;;;47.33;28.17;;;16.30;99.90;;;;;;4997571;28;271186;-72
2023/10/13 02:53:28;;;;;;;45.08;28.08;;;16.30;99.90;;;;;;5034637;28;20055;-72
2023/10/13 02:55:58;;;;;;;43.28;26.17;;;16.40;99.90;;;;;;5015053;28;169778;-72
2023/10/13 02:58:37;;;;;;;46.38;27.25;;;16.40;99.90;;;;;;5012049;28;20426;-72
2023/10/13 03:01:19;;;;;;;43.40;26.25;;;16.30;99.90;;;;;;5023382;28;20519;-73
2023/10/13 03:03:53;;;;;;;39.90;24.38;;;16.30;99.90;;;;;;5014747;28;189313;-72
2023/10/13 03:06:32;;;;;;;39.45;24.00;;;16.30;99.90;;;;;;5045879;28;20044;-72
2023/10/13 03:09:18;;;;;;;36.58;20.83;;;16.40;99.90;;;;;;5022592;28;42048;-72
2023/10/13 03:11:48;;;;;;;36.25;21.77;;;16.30;99.90;;;;;;5033866;28;20056;-72
2023/10/13 03:14:28;;;;;;;30.20;19.97;;;16.30;99.90;;;;;;5016644;28;241872;-72
2023/10/13 03:17:02;;;;;;;32.40;20.10;;;16.30;99.90;;;;;;5063426;28;20037;-72
2023/10/13 03:19:32;;;;;;;34.45;21.02;;;16.30;99.90;;;;;;5013212;28;134543;-72
2023/10/13 03:22:11;;;;;;;41.28;23.45;;;16.30;99.90;;;;;;5061090;28;20407;-71
2023/10/13 03:24:47;;;;;;;37.97;22.00;;;16.30;99.90;;;;;;4987844;28;173840;-73
2023/10/13 03:27:17;;;;;;;32.70;21.80;;;16.20;99.90;;;;;;5047718;28;20053;-73
2023/10/13 03:29:54;;;;;;;37.23;23.03;;;16.30;99.90;;;;;;5008390;28;195185;-73
2023/10/13 03:32:20;;;;;;;37.58;22.90;;;16.30;99.90;;;;;;5061706;28;20040;-72
2023/10/13 03:35:12;;;;;;;41.28;22.38;;;16.30;99.90;;;;;;5008364;28;200107;-72
2023/10/13 03:37:38;;;;;;;42.42;24.33;;;16.30;99.90;;;;;;5051525;28;20522;-72
2023/10/13 03:45:26;;;;;;;44.25;24.17;;;16.30;99.90;;;;;;5019118;28;27276;-70
2023/10/13 03:47:53;;;;;;;37.85;22.70;;;16.20;99.90;;;;;;5055202;28;20053;-72
2023/10/13 03:50:31;;;;;;;41.35;23.17;;;16.30;99.90;;;;;;4978502;28;180911;-72
2023/10/13 03:52:57;;;;;;;36.63;21.38;;;16.30;99.90;;;;;;5056481;28;20060;-72
2023/10/13 03:55:28;;;;;;;40.83;21.25;;;16.30;99.90;;;;;;4976877;28;252513;-71
2023/10/13 03:57:59;;;;;;;39.90;21.52;;;16.20;99.90;;;;;;5058852;28;20048;-71
2023/10/13 04:00:27;;;;;;;40.53;21.50;;;16.30;99.90;;;;;;5014038;28;126261;-71
2023/10/13 04:05:44;;;;;;;32.10;18.05;;;16.20;99.90;;;;;;4997524;28;190101;-73
2023/10/13 04:32:32;;;;;;;43.10;20.38;;;16.20;99.90;;;;;;5059509;28;20503;-72
2023/10/13 04:35:17;;;;;;;37.13;21.45;;;16.30;99.90;;;;;;5001875;28;129130;-72
2023/10/13 04:38:01;;;;;;;41.17;21.05;;;16.30;99.90;;;;;;5042711;28;20049;-71
2023/10/13 04:40:35;;;;;;;38.08;21.05;;;16.20;99.90;;;;;;5006170;28;222605;-70
2023/10/13 04:43:17;;;;;;;35.20;20.30;;;16.20;99.90;;;;;;5064108;28;20036;-72
2023/10/13 04:45:55;;;;;;;41.10;20.38;;;16.30;99.90;;;;;;5006609;28;167049;-72
2023/10/13 04:50:58;;;;;;;43.00;21.70;;;16.20;99.90;;;;;;5029964;28;20061;-71
2023/10/13 05:45:24;;;;;;;24.02;11.80;;;15.80;99.90;;;;;;5019872;28;70018;-72
2023/10/13 06:28:41;;;;;;;16.27;8.15;;;15.70;99.90;;;;;;5017301;28;22458;-71
2023/10/13 06:31:12;;;;;;;17.92;8.60;;;15.80;99.90;;;;;;5051715;28;20053;-72
2023/10/13 06:33:44;;;;;;;16.02;8.20;;;15.80;99.90;;;;;;5011549;28;208828;-71
2023/10/13 06:36:11;;;;;;;14.77;8.07;;;15.80;99.90;;;;;;5038146;28;20599;-73
2023/10/13 06:38:37;;;;;;;15.68;8.93;;;15.80;99.90;;;;;;5008631;28;163149;-73
2023/10/13 06:41:05;;;;;;;16.15;8.32;;;15.80;99.90;;;;;;5039771;28;20072;-72
2023/10/13 06:43:42;;;;;;;15.55;7.97;;;15.80;99.90;;;;;;5016290;28;67556;-71
2023/10/13 06:46:14;;;;;;;21.38;9.15;;;15.80;99.90;;;;;;5026792;28;20067;-72
2023/10/13 06:48:41;;;;;;;13.13;6.43;;;15.90;99.90;;;;;;5007006;28;147300;-73
2023/10/13 06:51:25;;;;;;;18.00;7.80;;;15.90;99.90;;;;;;5037720;28;20060;-72
2023/10/13 06:53:56;;;;;;;14.77;6.85;;;15.90;99.90;;;;;;4994882;28;150667;-73
2023/10/13 06:56:29;;;;;;;14.75;7.18;;;16.00;99.90;;;;;;5026636;28;20052;-72
2023/10/13 06:58:59;;;;;;;12.63;5.28;;;16.10;99.90;;;;;;5010442;28;114812;-73
2023/10/13 07:01:27;;;;;;;14.27;6.43;;;16.10;99.90;;;;;;5043522;28;20071;-74
2023/10/13 07:03:53;;;;;;;13.93;6.03;;;16.10;99.90;;;;;;5004865;28;196645;-72
2023/10/13 07:06:20;;;;;;;15.25;5.82;;;16.20;99.90;;;;;;5047645;28;20053;-72
2023/10/13 07:08:52;;;;;;;11.57;5.00;;;16.10;99.90;;;;;;5013559;28;110879;-72
2023/10/13 07:11:34;;;;;;;12.00;5.40;;;16.20;99.90;;;;;;5059850;28;20059;-71
2023/10/13 07:14:10;;;;;;;16.75;5.53;;;16.20;99.90;;;;;;5001354;28;246977;-71
2023/10/13 07:16:58;;;;;;;14.43;4.75;;;16.20;99.90;;;;;;5046707;28;20048;-72
2023/10/13 07:19:27;;;;;;;16.08;6.03;;;16.20;99.90;;;;;;5015363;28;20067;-71
2023/10/13 07:24:42;;;;;;;11.18;4.90;;;16.10;99.90;;;;;;5012207;28;226252;-72
2023/10/13 07:27:09;;;;;;;15.43;5.40;;;16.10;99.90;;;;;;5050045;28;20052;-71
2023/10/13 07:29:35;;;;;;;12.82;5.45;;;16.10;99.90;;;;;;5013575;28;24013;-72
2023/10/13 07:32:12;;;;;;;16.35;5.50;;;16.20;99.90;;;;;;5060941;28;20063;-72
2023/10/13 07:34:39;;;;;;;16.90;5.97;;;16.00;99.90;;;;;;5004169;28;20056;-74
2023/10/13 07:37:08;;;;;;;17.33;5.57;;;16.10;99.90;;;;;;5045836;28;20048;-72
2023/10/13 07:39:34;;;;;;;17.65;5.80;;;16.10;99.90;;;;;;5019732;28;114283;-72
2023/10/13 07:42:04;;;;;;;13.75;5.35;;;16.10;99.90;;;;;;5055547;28;20048;-71
2023/10/13 07:44:33;;;;;;;16.95;5.53;;;16.10;99.90;;;;;;5009651;28;20051;-72
2023/10/13 07:47:04;;;;;;;17.25;6.03;;;16.10;99.90;;;;;;5045767;28;20052;-71
2023/10/13 07:49:37;;;;;;;16.70;6.00;;;16.10;99.90;;;;;;5008100;28;20049;-71
2023/10/13 07:52:23;;;;;;;18.33;6.50;;;16.10;99.90;;;;;;5050899;28;20059;-71
2023/10/13 07:54:59;;;;;;;18.40;6.50;;;16.10;99.90;;;;;;4987996;28;20531;-72
2023/10/13 07:57:29;;;;;;;19.20;6.60;;;16.10;99.90;;;;;;5057993;28;20052;-71
2023/10/13 08:00:10;;;;;;;21.45;6.50;;;16.10;99.90;;;;;;5006077;28;20095;-72
2023/10/13 08:02:48;;;;;;;23.05;7.10;;;16.10;99.90;;;;;;5054841;28;20499;-72
2023/10/13 08:05:53;;;;;;;20.52;6.43;;;16.20;99.90;;;;;;4991002;28;20054;-71
2023/10/13 08:08:16;;;;;;;;;;;16.10;99.90;;;;;;5023904;28;20055;-72
2023/10/13 08:10:45;;;;;;;22.02;7.10;;;16.20;99.90;;;;;;5060365;28;19931;-72
2023/10/13 08:13:12;;;;;;;22.00;7.20;;;16.20;99.90;;;;;;5048293;28;20052;-71
2023/10/13 08:15:48;;;;;;;26.00;8.02;;;16.30;99.90;;;;;;5030341;28;247684;-71
2023/10/13 08:18:19;;;;;;;27.27;7.72;;;16.30;99.90;;;;;;5015817;28;20060;-72
2023/10/13 08:20:47;;;;;;;25.08;7.80;;;16.30;99.90;;;;;;5028289;28;20410;-72
2023/10/13 08:23:20;;;;;;;21.50;7.65;;;16.30;99.90;;;;;;5020690;28;20060;-72
2023/10/13 08:26:29;;;;;;;20.52;7.60;;;16.20;99.90;;;;;;5055776;28;20053;-72
2023/10/13 08:31:22;;;;;;;20.20;7.93;;;16.40;99.90;;;;;;5040774;28;20064;-73
2023/10/13 08:33:57;;;;;;;23.88;7.57;;;16.40;99.90;;;;;;5025484;28;20051;-72
2023/10/13 08:36:27;;;;;;;22.05;8.18;;;16.40;99.90;;;;;;5059909;28;20049;-72
2023/10/13 08:38:55;;;;;;;20.08;8.05;;;16.40;99.90;;;;;;5011296;28;20051;-71
2023/10/13 08:43:51;;;;;;;21.27;7.55;;;16.40;99.90;;;;;;5014652;28;20102;-72
2023/10/13 08:47:24;;;;;;;21.27;7.90;;;16.50;99.90;;;;;;5033112;28;20079;-72
2023/10/13 08:49:17;;;;;;;23.17;8.25;;;16.50;99.90;;;;;;4995757;28;20554;-72
2023/10/13 08:51:44;;;;;;;23.55;8.32;;;16.50;99.90;;;;;;5045155;28;20048;-72
2023/10/13 08:54:33;;;;;;;20.70;8.52;;;16.50;99.90;;;;;;4998189;28;232884;-71
2023/10/13 08:57:19;;;;;;;24.30;8.93;;;16.50;99.90;;;;;;5050247;28;20057;-72
2023/10/13 08:59:55;;;;;;;23.42;8.63;;;16.60;99.90;;;;;;5008024;28;20101;-70
2023/10/13 09:02:59;;;;;;;25.58;9.00;;;16.60;99.90;;;;;;5049467;28;20055;-72
2023/10/13 09:08:07;;;;;;;24.45;9.75;;;16.70;99.90;;;;;;5052741;28;20049;-72
2023/10/13 09:10:34;;;;;;;24.77;10.23;;;16.80;99.90;;;;;;4963354;28;20447;-70
2023/10/13 09:13:03;;;;;;;22.45;9.73;;;16.90;99.90;;;;;;5054741;28;21057;-72
2023/10/13 09:15:59;;;;;;;23.55;10.07;;;16.90;99.90;;;;;;4978881;28;20061;-72
2023/10/13 09:18:48;;;;;;;22.45;10.02;;;17.00;99.90;;;;;;5012086;28;20045;-71
2023/10/13 09:27:01;;;;;;;22.15;9.60;;;17.10;99.90;;;;;;5040371;28;20056;-70
2023/10/13 09:29:29;;;;;;;22.98;9.35;;;17.10;99.90;;;;;;4989046;28;20056;-71
2023/10/13 09:32:03;;;;;;;20.25;8.63;;;17.20;99.90;;;;;;5040334;28;20086;-72
2023/10/13 09:34:31;;;;;;;18.10;8.45;;;17.30;99.90;;;;;;5008380;28;20539;-70
2023/10/13 09:36:59;;;;;;;20.25;8.13;;;17.30;99.90;;;;;;5038180;28;20044;-71
2023/10/13 09:42:27;;;;;;;20.30;7.55;;;17.50;99.90;;;;;;5034401;28;20528;-71
2023/10/13 09:44:58;;;;;;;19.95;6.78;;;17.50;99.90;;;;;;4984995;28;20046;-72
2023/10/13 09:47:36;;;;;;;19.08;6.15;;;17.60;99.90;;;;;;5018048;28;20590;-71
2023/10/13 09:50:05;;;;;;;20.60;6.75;;;17.60;99.90;;;;;;4947413;28;20834;-72
2023/10/13 09:52:32;;;;;;;18.13;7.05;;;17.70;99.90;;;;;;5036864;28;20073;-70
2023/10/13 09:55:09;;;;;;;16.92;6.22;;;17.70;99.90;;;;;;4959816;28;201802;-72
2023/10/13 09:57:40;;;;;;;21.33;6.85;;;17.80;99.90;;;;;;5019185;28;20065;-72
2023/10/13 10:00:28;;;;;;;21.90;6.68;;;17.80;99.90;;;;;;4977163;28;20053;-73
2023/10/13 10:03:02;;;;;;;18.52;5.70;;;17.90;99.90;;;;;;5034092;28;20116;-71
2023/10/13 10:05:34;;;;;;;20.70;5.95;;;18.00;99.90;;;;;;4978065;28;20065;-70
2023/10/13 10:08:01;;;;;;;21.60;6.00;;;18.10;99.90;;;;;;5022792;28;20187;-72
2023/10/13 10:10:59;;;;;;;19.48;6.40;;;18.20;99.90;;;;;;4974971;28;20053;-71
2023/10/13 10:13:38;;;;;;;19.27;5.72;;;18.30;99.90;;;;;;4998453;28;20056;-72
2023/10/13 10:16:14;;;;;;;20.85;6.10;;;18.30;99.90;;;;;;5019704;28;20056;-72
2023/10/13 10:18:42;;;;;;;19.20;5.88;;;18.40;99.90;;;;;;5018853;28;20053;-72
2023/10/13 10:21:11;;;;;;;20.80;5.82;;;18.40;99.90;;;;;;5045422;28;20438;-71
2023/10/13 10:23:43;;;;;;;23.33;6.05;;;18.40;99.90;;;;;;4997232;28;20053;-70
2023/10/13 10:26:13;;;;;;;16.17;5.85;;;18.50;99.90;;;;;;5041310;28;20083;-71
2023/10/13 10:28:41;;;;;;;18.30;5.40;;;18.50;99.90;;;;;;5013190;28;20122;-72
2023/10/13 10:31:12;;;;;;;16.42;6.30;;;18.60;99.90;;;;;;5050744;28;20065;-72
2023/10/13 10:33:41;;;;;;;20.23;5.10;;;18.60;99.90;;;;;;5007340;28;20052;-71
2023/10/13 10:36:14;;;;;;;20.40;5.55;;;18.60;99.90;;;;;;5049523;28;20053;-71
2023/10/13 10:38:59;;;;;;;15.18;5.22;;;18.70;99.90;;;;;;5020044;28;20052;-72
2023/10/13 10:41:51;;;;;;;17.10;5.72;;;18.70;99.90;;;;;;5057599;28;20139;-70
2023/10/13 10:44:37;;;;;;;21.45;5.70;;;18.80;99.90;;;;;;5003895;28;20056;-73
2023/10/13 10:47:11;;;;;;;23.63;5.75;;;18.90;99.90;;;;;;5050427;28;20551;-70
2023/10/13 10:49:38;;;;;;;18.50;5.38;;;18.90;99.90;;;;;;5024157;28;20036;-71
2023/10/13 10:52:14;;;;;;;24.13;6.30;;;19.00;99.90;;;;;;5051198;28;20430;-70
2023/10/13 10:54:43;;;;;;;16.83;5.55;;;19.20;99.90;;;;;;4980294;28;232992;-71
2023/10/13 10:57:11;;;;;;;21.17;5.75;;;19.30;99.90;;;;;;5053545;28;20056;-71
2023/10/13 10:59:38;;;;;;;20.42;5.55;;;19.50;99.90;;;;;;5012541;28;20067;-71
2023/10/13 11:02:07;;;;;;;19.55;5.13;;;19.70;99.90;;;;;;5054468;28;20059;-70
2023/10/13 11:04:51;;;;;;;20.83;5.25;;;19.80;99.90;;;;;;5017000;28;20732;-71
2023/10/13 11:07:23;;;;;;;20.85;4.95;;;19.90;99.90;;;;;;5056390;28;20059;-71
2023/10/13 11:09:52;;;;;;;18.08;5.18;;;20.00;99.90;;;;;;4998977;28;20530;-72
2023/10/13 11:14:49;;;;;;;21.48;5.40;;;19.90;99.90;;;;;;5017636;28;20041;-70
2023/10/13 11:20:17;;;;;;;17.00;5.07;;;19.80;99.90;;;;;;5020048;28;20542;-71
2023/10/13 11:22:47;;;;;;;21.48;5.68;;;19.70;99.90;;;;;;5067311;28;20049;-71
2023/10/13 11:25:29;;;;;;;21.48;5.63;;;19.70;99.90;;;;;;5002966;28;20978;-71
2023/10/13 11:28:09;;;;;;;25.30;5.60;;;19.70;99.90;;;;;;5063543;28;20478;-71
2023/10/13 11:33:06;;;;;;;18.58;5.50;;;19.60;99.90;;;;;;5060893;28;20126;-72
2023/10/13 11:38:27;;;;;;;20.73;5.43;;;19.70;99.90;;;;;;5025174;28;20044;-69
2023/10/13 11:51:49;;;;;;;20.35;6.15;;;19.50;99.90;;;;;;5038722;28;20156;-68
2023/10/13 11:54:19;;;;;;;21.00;5.65;;;19.50;99.90;;;;;;4975461;28;134512;-69
2023/10/13 11:56:46;;;;;;;17.05;5.10;;;19.50;99.90;;;;;;5018135;28;20051;-71
2023/10/13 11:59:19;;;;;;;21.38;5.60;;;19.60;99.90;;;;;;4971986;28;20067;-72
2023/10/13 12:04:41;;;;;;;20.70;5.43;;;19.50;99.90;;;;;;5000727;28;20053;-72
2023/10/13 12:12:24;;;;;;;23.55;6.03;;;19.40;99.90;;;;;;5025652;28;20049;-71
2023/10/13 12:14:56;;;;;;;20.02;6.07;;;19.50;99.90;;;;;;4971903;28;20188;-73
2023/10/13 12:17:36;;;;;;;18.65;5.53;;;19.40;99.90;;;;;;5036299;28;20049;-72
2023/10/13 12:20:05;;;;;;;18.25;5.75;;;19.30;99.90;;;;;;4993860;28;20045;-69
2023/10/13 12:22:42;;;;;;;19.08;5.97;;;19.20;99.90;;;;;;5024384;28;20053;-70
2023/10/13 12:26:19;;;;;;;21.15;6.45;;;19.10;99.90;;;;;;5000936;28;20045;-71
2023/10/13 12:28:18;;;;;;;20.70;6.57;;;19.00;99.90;;;;;;5055868;28;20438;-70
2023/10/13 12:30:52;;;;;;;18.83;6.40;;;19.10;99.90;;;;;;4999897;28;20550;-72
2023/10/13 12:33:27;;;;;;;21.83;7.07;;;19.10;99.90;;;;;;5016846;28;20052;-70
2023/10/13 12:36:11;;;;;;;22.33;6.13;;;19.10;99.90;;;;;;5042621;28;20665;-73
2023/10/13 12:52:26;;;;;;;21.73;7.10;;;19.10;99.90;;;;;;5055859;28;20040;-70
2023/10/13 12:54:58;;;;;;;20.63;6.18;;;19.20;99.90;;;;;;5002255;28;48374;-71
2023/10/13 12:57:25;;;;;;;21.05;6.05;;;19.20;99.90;;;;;;5056648;28;20048;-72
2023/10/13 12:59:54;;;;;;;20.70;6.30;;;19.30;99.90;;;;;;4989500;28;20754;-73
2023/10/13 13:02:21;;;;;;;22.52;6.18;;;19.30;99.90;;;;;;5048353;28;20048;-73
2023/10/13 13:04:54;;;;;;;22.88;6.18;;;19.40;99.90;;;;;;5004240;28;20081;-73
2023/10/13 13:07:20;;;;;;;19.85;6.28;;;19.40;99.90;;;;;;5058117;28;20048;-72
2023/10/13 13:09:46;;;;;;;22.23;7.07;;;19.40;99.90;;;;;;5018435;28;20052;-71
2023/10/13 13:12:12;;;;;;;24.02;6.55;;;19.20;99.90;;;;;;5058537;28;20052;-72
2023/10/13 13:14:43;;;;;;;19.73;6.97;;;19.10;99.90;;;;;;5008992;28;20052;-73
2023/10/13 13:17:09;;;;;;;;;;;19.00;99.90;;;;;;5034917;28;20065;-72
2023/10/13 13:19:38;;;;;;;18.48;7.15;;;18.90;99.90;;;;;;5004882;28;19924;-70
2023/10/13 13:22:11;;;;;;;23.58;7.22;;;18.70;99.90;;;;;;5045751;28;20051;-71
2023/10/13 13:24:43;;;;;;;19.83;6.93;;;18.70;99.90;;;;;;5010088;28;20048;-72
2023/10/13 13:27:14;;;;;;;22.38;7.82;;;18.70;99.90;;;;;;5049030;28;20057;-72
2023/10/13 13:29:46;;;;;;;;;;;18.60;99.90;;;;;;4993308;28;20056;-70
2023/10/13 13:32:24;;;;;;;24.25;7.85;;;18.60;99.90;;;;;;5050250;28;19924;-73
2023/10/13 13:35:04;;;;;;;18.42;6.20;;;18.60;99.90;;;;;;5012714;28;20051;-71
2023/10/13 13:37:30;;;;;;;20.08;7.45;;;18.70;99.90;;;;;;5052487;28;20067;-71
2023/10/13 13:40:13;;;;;;;18.90;7.55;;;18.70;99.90;;;;;;4991556;28;20061;-71
2023/10/13 13:42:40;;;;;;;21.42;7.55;;;18.60;99.90;;;;;;5056606;28;20743;-71
2023/10/13 13:45:21;;;;;;;20.48;7.60;;;18.60;99.90;;;;;;4987109;28;20420;-70
2023/10/13 13:47:53;;;;;;;24.83;7.80;;;18.60;99.90;;;;;;5051446;28;20076;-72
2023/10/13 13:50:32;;;;;;;20.42;7.60;;;18.50;99.90;;;;;;4980582;28;20049;-72
2023/10/13 13:53:01;;;;;;;20.70;7.38;;;18.40;99.90;;;;;;5055158;28;20048;-71
2023/10/13 13:55:28;;;;;;;23.30;7.85;;;18.40;99.90;;;;;;4975721;28;235869;-72
2023/10/13 13:57:58;;;;;;;24.52;7.20;;;18.40;99.90;;;;;;5053069;28;20051;-71
2023/10/13 14:00:48;;;;;;;24.30;7.82;;;18.50;99.90;;;;;;4983358;28;20056;-72
2023/10/13 14:03:32;;;;;;;21.80;7.63;;;18.50;99.90;;;;;;5028294;28;20052;-71
2023/10/13 14:05:59;;;;;;;24.40;7.90;;;18.50;99.90;;;;;;5028450;28;20498;-71
2023/10/13 14:08:27;;;;;;;23.75;8.48;;;18.40;99.90;;;;;;5014510;28;20517;-71
2023/10/13 14:11:21;;;;;;;20.63;8.07;;;18.30;99.90;;;;;;5022261;28;20648;-72
2023/10/13 14:13:48;;;;;;;22.67;7.32;;;18.20;99.90;;;;;;5010216;28;20056;-71
2023/10/13 14:16:16;;;;;;;22.52;7.25;;;18.10;99.90;;;;;;5039491;28;20522;-71
2023/10/13 14:18:46;;;;;;;24.35;8.15;;;18.10;99.90;;;;;;5016053;28;20523;-70
2023/10/13 14:21:16;;;;;;;29.92;8.07;;;18.20;99.90;;;;;;5053828;28;20072;-70
2023/10/13 14:23:47;;;;;;;23.13;8.02;;;18.30;99.90;;;;;;4991667;28;20046;-70
2023/10/13 14:26:15;;;;;;;24.30;7.93;;;18.30;99.90;;;;;;5038845;28;20112;-69
2023/10/13 14:29:00;;;;;;;25.52;7.72;;;18.30;99.90;;;;;;5015643;28;20049;-69
2023/10/13 14:31:32;;;;;;;21.67;7.88;;;18.30;99.90;;;;;;5055411;28;20036;-71
2023/10/13 14:33:58;;;;;;;18.55;7.70;;;18.40;99.90;;;;;;5013531;28;20056;-69
2023/10/13 14:36:28;;;;;;;21.98;7.55;;;18.40;99.90;;;;;;5040168;28;20052;-69
2023/10/13 14:38:57;;;;;;;20.35;6.97;;;18.50;99.90;;;;;;5009760;28;20060;-70
2023/10/13 14:41:23;;;;;;;24.10;7.47;;;18.60;99.90;;;;;;5045390;28;20062;-71
2023/10/13 14:43:49;;;;;;;21.50;8.07;;;18.60;99.90;;;;;;5015051;28;20044;-70
2023/10/13 14:46:16;;;;;;;21.10;6.97;;;18.60;99.90;;;;;;5043643;28;20048;-70
2023/10/13 14:48:48;;;;;;;23.35;6.47;;;18.70;99.90;;;;;;5014563;28;20071;-70
2023/10/13 14:51:16;;;;;;;20.83;7.00;;;18.70;99.90;;;;;;5055325;28;20064;-70
2023/10/13 14:53:46;;;;;;;20.58;7.45;;;18.70;99.90;;;;;;4999609;28;150986;-70
2023/10/13 14:56:14;;;;;;;17.98;6.70;;;18.70;99.90;;;;;;5051947;28;20060;-72
2023/10/13 14:58:43;;;;;;;18.42;7.13;;;18.70;99.90;;;;;;5014355;28;20053;-70
2023/10/13 15:01:14;;;;;;;23.02;7.22;;;18.70;99.90;;;;;;5044855;28;20065;-71
2023/10/13 15:03:48;;;;;;;22.08;7.32;;;18.70;99.90;;;;;;5021638;27;20075;-71
2023/10/13 15:06:17;;;;;;;35.03;7.93;;;18.70;99.90;;;;;;5063892;28;20053;-71
2023/10/13 15:08:45;;;;;;;22.25;8.40;;;18.60;99.90;;;;;;5014648;28;20064;-72
2023/10/13 15:11:18;;;;;;;20.92;7.88;;;18.20;99.90;;;;;;5056940;28;20536;-73
2023/10/13 15:13:44;;;;;;;18.90;8.32;;;18.00;99.90;;;;;;5014925;28;20059;-73
2023/10/13 15:16:21;;;;;;;28.55;9.57;;;17.90;99.90;;;;;;5038363;28;20067;-71
2023/10/13 15:18:52;;;;;;;25.00;9.13;;;17.70;99.90;;;;;;5015646;28;20071;-71
2023/10/13 15:21:34;;;;;;;20.80;8.50;;;17.70;99.90;;;;;;5055801;28;20060;-71
2023/10/13 15:24:04;;;;;;;22.73;8.23;;;17.60;99.90;;;;;;5011267;28;20063;-72
2023/10/13 15:26:30;;;;;;;28.63;9.77;;;17.60;99.90;;;;;;5057853;28;20380;-72
2023/10/13 15:29:00;;;;;;;27.13;10.50;;;17.60;99.90;;;;;;5017490;28;20044;-69
2023/10/13 15:31:37;;;;;;;25.88;10.70;;;17.50;99.90;;;;;;5045640;28;20530;-70
2023/10/13 15:34:14;;;;;;;28.05;10.32;;;17.50;99.90;;;;;;5021631;28;20059;-72
2023/10/13 15:36:42;;;;;;;24.50;10.60;;;17.50;99.90;;;;;;5056080;28;20640;-70
2023/10/13 15:39:15;;;;;;;23.55;10.30;;;17.40;99.90;;;;;;5019779;28;20060;-70
2023/10/13 15:41:41;;;;;;;28.30;10.82;;;17.40;99.90;;;;;;5050062;28;20036;-70
2023/10/13 15:44:12;;;;;;;24.52;11.13;;;17.40;99.90;;;;;;5011318;28;20548;-70
2023/10/13 15:46:39;;;;;;;;;;;17.40;99.90;;;;;;5049651;28;20400;-70
2023/10/13 15:49:08;;;;;;;27.52;10.32;;;17.40;99.90;;;;;;5012537;28;19975;-70
2023/10/13 15:51:36;;;;;;;26.30;11.27;;;17.40;99.90;;;;;;5028341;28;20061;-70
2023/10/13 15:54:03;;;;;;;22.58;9.18;;;17.40;99.90;;;;;;4996724;28;132720;-71
2023/10/13 15:56:32;;;;;;;26.70;10.00;;;17.40;99.90;;;;;;5037115;28;20075;-71
2023/10/13 15:59:01;;;;;;;27.33;10.75;;;17.40;99.90;;;;;;5013970;28;121295;-71
2023/10/13 16:01:28;;;;;;;24.30;9.43;;;17.40;99.90;;;;;;5061189;28;20063;-70
2023/10/13 16:03:54;;;;;;;22.65;9.65;;;17.40;99.90;;;;;;5013972;28;20482;-71
2023/10/13 16:06:25;;;;;;;30.27;9.90;;;17.40;99.90;;;;;;5053095;28;20060;-70
2023/10/13 16:08:52;;;;;;;22.65;10.20;;;17.40;99.90;;;;;;5017641;28;46782;-70
2023/10/13 16:11:18;;;;;;;21.67;9.10;;;17.40;99.90;;;;;;5060739;28;20053;-70
2023/10/13 16:13:45;;;;;;;24.55;8.70;;;17.40;99.90;;;;;;5021196;28;31441;-71
2023/10/13 16:16:22;;;;;;;21.10;8.63;;;17.40;99.90;;;;;;5047875;28;20071;-70